Time;durP1;ratioP1;P1;durP2;ratioP2;P2;SDS_P1;SDS_P2;PMS_P1;PMS_P2;Temp;Humidity;BMP_temperature;BMP_pressure;BME280_temperature;BME280_humidity;BME280_pressure;Samples;Min_cycle;Max_cycle;Signal;HPM_P1;HPM_P2
2022/05/06 05:37:34;;;;;;;8.75;4.60;;;;;;;;;;5465443;24;21003;-71
2022/05/06 05:40:00;;;;;;;8.52;4.68;;;;;;;;;;4791107;29;20791;-59
2022/05/06 05:42:29;;;;;;;6.20;4.63;;;;;;;;;;4790522;29;20468;-60
2022/05/06 05:50:27;;;;;;;8.63;4.32;;;;;;;;;;4794281;29;20050;-60
2022/05/06 05:52:54;;;;;;;9.82;5.20;;;;;;;;;;4792574;29;20106;-59
2022/05/06 05:55:20;;;;;;;8.85;5.03;;;;;;;;;;4790620;29;20153;-60
2022/05/06 05:57:47;;;;;;;7.15;4.70;;;;;;;;;;4789899;29;20060;-60
2022/05/06 06:00:13;;;;;;;8.57;4.95;;;;;;;;;;4786152;29;20035;-60
2022/05/06 06:02:39;;;;;;;10.60;5.03;;;;;;;;;;4786024;30;20055;-60
2022/05/06 06:05:05;;;;;;;8.02;5.38;;;;;;;;;;4786089;30;20052;-60
2022/05/06 06:07:32;;;;;;;10.63;5.28;;;;;;;;;;4784365;30;20469;-60
2022/05/06 06:09:58;;;;;;;9.38;5.10;;;;;;;;;;4785387;29;20031;-67
2022/05/06 06:12:24;;;;;;;10.35;5.57;;;;;;;;;;4784018;29;20485;-60
2022/05/06 06:14:55;;;;;;;11.52;5.45;;;;;;;;;;4793677;29;20022;-65
2022/05/06 06:17:21;;;;;;;11.93;5.82;;;;;;;;;;4794573;29;20039;-59
2022/05/06 06:19:48;;;;;;;10.70;5.72;;;;;;;;;;4792976;29;20054;-59
2022/05/06 06:22:14;;;;;;;11.35;5.90;;;;;;;;;;4792761;29;20079;-58
2022/05/06 06:24:40;;;;;;;11.25;6.05;;;;;;;;;;4789653;29;20035;-60
2022/05/06 06:27:06;;;;;;;11.07;5.65;;;;;;;;;;4793310;29;20019;-59
2022/05/06 06:29:35;;;;;;;11.63;5.53;;;;;;;;;;4792334;29;20324;-60
2022/05/06 06:32:01;;;;;;;10.30;5.38;;;;;;;;;;4793468;29;20031;-68
2022/05/06 06:34:27;;;;;;;11.75;5.82;;;;;;;;;;4794426;29;20031;-68
2022/05/06 06:36:53;;;;;;;12.77;6.63;;;;;;;;;;4787483;29;20451;-60
2022/05/06 06:39:20;;;;;;;13.88;5.70;;;;;;;;;;4802758;29;20557;-60
2022/05/06 06:41:46;;;;;;;9.20;5.90;;;;;;;;;;4807317;29;20114;-59
2022/05/06 06:44:12;;;;;;;11.13;5.38;;;;;;;;;;4806184;29;20062;-62
2022/05/06 06:46:38;;;;;;;11.57;5.43;;;;;;;;;;4806217;29;20509;-64
2022/05/06 06:49:05;;;;;;;11.93;5.22;;;;;;;;;;4805997;29;20039;-61
2022/05/06 06:51:34;;;;;;;8.43;5.32;;;;;;;;;;4806154;29;20070;-67
2022/05/06 06:54:00;;;;;;;9.90;5.07;;;;;;;;;;4806949;29;20027;-62
2022/05/06 06:56:26;;;;;;;10.20;5.20;;;;;;;;;;4807143;29;20491;-59
2022/05/06 06:58:52;;;;;;;10.63;5.32;;;;;;;;;;4806432;29;20049;-60
2022/05/06 07:01:18;;;;;;;9.68;5.00;;;;;;;;;;4806895;29;20038;-62
2022/05/06 07:03:44;;;;;;;10.90;5.55;;;;;;;;;;4805738;29;20102;-64
2022/05/06 07:11:56;;;;;;;12.57;5.95;;;;;;;;;;4802927;29;20053;-60
2022/05/06 07:14:23;;;;;;;10.25;5.65;;;;;;;;;;4803403;29;20419;-61
2022/05/06 07:16:51;;;;;;;9.27;5.45;;;;;;;;;;4804857;29;20412;-68
2022/05/06 07:19:17;;;;;;;11.07;5.00;;;;;;;;;;4805545;29;20041;-59
2022/05/06 07:21:44;;;;;;;9.13;5.20;;;;;;;;;;4804582;29;20505;-59
2022/05/06 07:24:10;;;;;;;10.10;5.30;;;;;;;;;;4803807;29;20061;-59
2022/05/06 07:26:36;;;;;;;12.13;5.38;;;;;;;;;;4797576;29;20050;-62
2022/05/06 07:29:02;;;;;;;10.43;5.00;;;;;;;;;;4794222;29;20036;-60
2022/05/06 07:31:28;;;;;;;11.43;5.28;;;;;;;;;;4799499;29;20054;-67
2022/05/06 07:33:55;;;;;;;10.88;5.82;;;;;;;;;;4804962;29;20109;-59
2022/05/06 07:36:23;;;;;;;10.52;5.63;;;;;;;;;;4804893;29;20505;-59
2022/05/06 07:38:49;;;;;;;11.40;5.80;;;;;;;;;;4799098;29;20059;-60
2022/05/06 07:41:15;;;;;;;13.18;6.25;;;;;;;;;;4801649;29;20049;-61
2022/05/06 07:43:41;;;;;;;10.55;6.03;;;;;;;;;;4803899;29;20031;-65
2022/05/06 07:46:10;;;;;;;12.15;6.03;;;;;;;;;;4803596;29;20403;-61
2022/05/06 07:48:37;;;;;;;13.98;6.00;;;;;;;;;;4800349;29;20112;-61
2022/05/06 07:51:03;;;;;;;10.13;5.97;;;;;;;;;;4795442;29;20062;-66
2022/05/06 07:53:30;;;;;;;10.20;5.55;;;;;;;;;;4798060;29;20031;-61
2022/05/06 07:55:56;;;;;;;12.48;5.43;;;;;;;;;;4798055;29;20038;-59
2022/05/06 07:58:22;;;;;;;8.98;5.15;;;;;;;;;;4795914;29;20099;-59
2022/05/06 08:00:50;;;;;;;9.18;5.07;;;;;;;;;;4787103;30;20051;-59
2022/05/06 08:06:01;;;;;;;8.40;4.63;;;;;;;;;;4790534;29;20041;-66
2022/05/06 08:08:27;;;;;;;12.15;4.88;;;;;;;;;;4793589;29;20481;-59
2022/05/06 08:10:54;;;;;;;11.85;4.47;;;;;;;;;;4789343;29;20436;-61
2022/05/06 08:13:20;;;;;;;11.75;5.13;;;;;;;;;;4787406;29;20035;-61
2022/05/06 08:15:47;;;;;;;8.25;4.13;;;;;;;;;;4786790;29;20027;-69
2022/05/06 08:18:13;;;;;;;5.63;3.97;;;;;;;;;;4786440;29;20051;-65
2022/05/06 08:20:40;;;;;;;9.85;4.30;;;;;;;;;;4786295;29;20034;-60
2022/05/06 08:23:07;;;;;;;8.07;3.90;;;;;;;;;;4790230;29;20164;-67
2022/05/06 08:25:33;;;;;;;8.13;4.03;;;;;;;;;;4789254;29;20063;-68
2022/05/06 08:27:59;;;;;;;9.77;3.90;;;;;;;;;;4796868;29;20033;-61
2022/05/06 08:30:25;;;;;;;7.28;3.90;;;;;;;;;;4792404;29;20019;-68
2022/05/06 08:32:52;;;;;;;9.10;3.80;;;;;;;;;;4792358;29;20027;-61
2022/05/06 08:35:19;;;;;;;9.10;3.63;;;;;;;;;;4796465;29;20031;-61
2022/05/06 08:37:46;;;;;;;9.45;3.67;;;;;;;;;;4794654;29;20042;-65
2022/05/06 08:40:23;;;;;;;9.88;4.00;;;;;;;;;;4795190;29;20045;-60
2022/05/06 08:42:49;;;;;;;8.50;4.22;;;;;;;;;;4794429;29;20066;-67
2022/05/06 08:50:57;;;;;;;12.68;3.78;;;;;;;;;;4791817;29;20176;-58
2022/05/06 08:53:42;;;;;;;8.95;4.18;;;;;;;;;;4796404;29;20050;-59
2022/05/06 08:56:08;;;;;;;5.38;3.70;;;;;;;;;;4777815;29;20067;-58
2022/05/06 08:58:37;;;;;;;8.43;3.50;;;;;;;;;;4797040;29;20445;-58
2022/05/06 09:01:13;;;;;;;8.20;3.65;;;;;;;;;;4796221;29;20183;-66
2022/05/06 09:03:40;;;;;;;6.40;3.20;;;;;;;;;;4792692;29;20042;-64
2022/05/06 09:06:16;;;;;;;12.32;3.65;;;;;;;;;;4794316;29;20051;-63
2022/05/06 09:08:43;;;;;;;7.95;3.65;;;;;;;;;;4791008;29;20059;-65
2022/05/06 09:11:09;;;;;;;6.03;3.30;;;;;;;;;;4798023;29;20043;-66
2022/05/06 09:13:39;;;;;;;8.30;3.17;;;;;;;;;;4792208;29;20145;-65
2022/05/06 09:19:15;;;;;;;5.30;3.13;;;;;;;;;;4792430;29;20066;-64
2022/05/06 09:21:59;;;;;;;6.50;3.20;;;;;;;;;;4793333;29;20044;-58
2022/05/06 09:24:27;;;;;;;5.13;3.42;;;;;;;;;;4795148;29;20038;-58
2022/05/06 09:27:00;;;;;;;7.80;3.70;;;;;;;;;;4795348;29;20051;-57
2022/05/06 09:29:29;;;;;;;9.32;3.42;;;;;;;;;;4786065;29;20038;-58
2022/05/06 09:31:56;;;;;;;5.65;3.30;;;;;;;;;;4789686;29;20095;-62
2022/05/06 09:34:28;;;;;;;6.82;3.70;;;;;;;;;;4793243;29;20034;-62
2022/05/06 09:36:55;;;;;;;;;;;;;;;;;;4801922;29;20030;-66
2022/05/06 09:39:23;;;;;;;7.28;3.50;;;;;;;;;;4806409;29;19936;-63
2022/05/06 09:42:04;;;;;;;6.55;3.60;;;;;;;;;;4794485;29;20101;-66
2022/05/06 09:44:33;;;;;;;6.73;3.27;;;;;;;;;;4800910;29;20110;-58
2022/05/06 09:47:09;;;;;;;6.28;3.38;;;;;;;;;;4793942;29;20039;-67
2022/05/06 09:49:42;;;;;;;4.75;3.25;;;;;;;;;;4793270;29;20373;-59
2022/05/06 09:52:12;;;;;;;5.88;3.10;;;;;;;;;;4791215;29;20027;-67
2022/05/06 09:54:41;;;;;;;10.40;3.35;;;;;;;;;;4794018;29;20051;-66
2022/05/06 09:57:08;;;;;;;6.95;3.40;;;;;;;;;;4794730;29;20051;-58
2022/05/06 09:59:35;;;;;;;6.03;3.20;;;;;;;;;;4794908;29;20403;-65
2022/05/06 10:02:01;;;;;;;12.80;3.40;;;;;;;;;;4792323;29;20039;-67
2022/05/06 10:04:28;;;;;;;7.90;3.90;;;;;;;;;;4784843;30;20023;-60
2022/05/06 10:06:57;;;;;;;12.38;3.53;;;;;;;;;;4784933;30;20044;-58
2022/05/06 10:09:25;;;;;;;7.25;3.47;;;;;;;;;;4784689;30;20031;-64
2022/05/06 10:11:51;;;;;;;10.65;4.03;;;;;;;;;;4791929;29;20031;-58
2022/05/06 10:14:18;;;;;;;11.43;3.50;;;;;;;;;;4792376;29;20034;-59
2022/05/06 10:16:45;;;;;;;8.95;3.20;;;;;;;;;;4795115;29;20046;-58
2022/05/06 10:19:35;;;;;;;6.82;3.30;;;;;;;;;;4793587;29;20043;-63
2022/05/06 10:22:07;;;;;;;6.78;3.38;;;;;;;;;;4789749;29;20567;-63
2022/05/06 10:24:42;;;;;;;4.40;2.83;;;;;;;;;;4801916;29;20043;-64
2022/05/06 10:33:25;;;;;;;7.10;3.15;;;;;;;;;;4787299;30;20760;-69
2022/05/06 10:36:00;;;;;;;7.18;3.33;;;;;;;;;;4750849;30;20040;-71
2022/05/06 10:38:27;;;;;;;6.88;2.78;;;;;;;;;;4750016;30;20085;-65
2022/05/06 10:40:57;;;;;;;6.32;3.10;;;;;;;;;;4765594;30;20047;-65
2022/05/06 10:43:42;;;;;;;7.68;2.88;;;;;;;;;;4764827;30;20051;-63
2022/05/06 10:46:09;;;;;;;4.82;2.90;;;;;;;;;;4765555;30;20073;-58
2022/05/06 10:48:35;;;;;;;8.25;3.15;;;;;;;;;;4765240;30;20457;-59
2022/05/06 10:51:19;;;;;;;7.35;3.35;;;;;;;;;;4765182;30;20036;-59
2022/05/06 10:53:45;;;;;;;7.65;3.33;;;;;;;;;;4765061;30;20045;-60
2022/05/06 10:56:12;;;;;;;5.78;3.40;;;;;;;;;;4764853;30;20630;-58
2022/05/06 10:58:38;;;;;;;7.35;3.05;;;;;;;;;;4765169;30;20063;-62
2022/05/06 11:01:04;;;;;;;9.07;4.18;;;;;;;;;;4765117;30;20493;-62
2022/05/06 11:03:30;;;;;;;8.73;3.10;;;;;;;;;;4764741;30;20040;-58
2022/05/06 11:05:56;;;;;;;8.75;3.35;;;;;;;;;;4765028;30;20546;-61
2022/05/06 11:08:32;;;;;;;5.57;3.10;;;;;;;;;;4784372;30;20100;-59
2022/05/06 11:10:58;;;;;;;5.97;2.95;;;;;;;;;;4785302;30;20036;-58
2022/05/06 11:13:25;;;;;;;4.53;2.92;;;;;;;;;;4785284;30;20542;-59
2022/05/06 11:15:52;;;;;;;6.80;2.88;;;;;;;;;;4784833;30;20112;-58
2022/05/06 11:18:19;;;;;;;6.22;2.90;;;;;;;;;;4784702;30;20035;-61
2022/05/06 11:20:45;;;;;;;5.60;2.90;;;;;;;;;;4785133;30;20020;-62
2022/05/06 11:23:13;;;;;;;9.73;2.85;;;;;;;;;;4779575;30;20086;-64
2022/05/06 11:25:43;;;;;;;8.63;2.78;;;;;;;;;;4774740;30;20101;-63
2022/05/06 11:28:13;;;;;;;5.85;2.60;;;;;;;;;;4770218;30;20034;-64
2022/05/06 11:30:43;;;;;;;7.97;3.05;;;;;;;;;;4770361;30;20111;-58
2022/05/06 11:33:18;;;;;;;6.20;2.80;;;;;;;;;;4770440;30;20090;-64
2022/05/06 11:35:48;;;;;;;5.38;3.40;;;;;;;;;;4769925;30;20032;-61
2022/05/06 11:38:14;;;;;;;4.65;3.05;;;;;;;;;;4769447;30;20048;-61
2022/05/06 11:40:40;;;;;;;6.95;2.97;;;;;;;;;;4781924;30;20070;-64
2022/05/06 11:43:07;;;;;;;5.18;2.70;;;;;;;;;;4757575;30;20054;-58
2022/05/06 11:48:22;;;;;;;6.60;3.15;;;;;;;;;;4805684;29;20406;-66
2022/05/06 11:50:51;;;;;;;5.07;3.13;;;;;;;;;;4817066;29;20027;-65
2022/05/06 11:53:19;;;;;;;5.30;3.05;;;;;;;;;;4805865;29;20137;-62
2022/05/06 11:55:48;;;;;;;7.13;3.22;;;;;;;;;;4805840;29;20535;-65
2022/05/06 11:58:15;;;;;;;5.13;2.95;;;;;;;;;;4805728;29;20123;-59
2022/05/06 12:00:42;;;;;;;7.80;3.05;;;;;;;;;;4805571;29;20035;-66
2022/05/06 12:03:09;;;;;;;7.60;3.10;;;;;;;;;;4805781;29;20034;-60
2022/05/06 12:05:36;;;;;;;4.63;2.35;;;;;;;;;;4805889;29;20031;-66
2022/05/06 12:08:02;;;;;;;5.00;2.78;;;;;;;;;;4805520;29;20045;-66
2022/05/06 12:10:31;;;;;;;7.07;3.17;;;;;;;;;;4805458;29;20049;-58
2022/05/06 12:12:57;;;;;;;6.38;2.58;;;;;;;;;;4805063;29;20031;-64
2022/05/06 12:15:30;;;;;;;7.68;2.60;;;;;;;;;;4805443;29;20034;-60
2022/05/06 12:18:06;;;;;;;7.00;3.10;;;;;;;;;;4805523;29;20045;-59
2022/05/06 12:20:37;;;;;;;6.70;2.88;;;;;;;;;;4805683;29;20035;-59
2022/05/06 12:23:06;;;;;;;11.00;4.28;;;;;;;;;;4805615;29;20127;-63
2022/05/06 12:25:35;;;;;;;11.07;3.90;;;;;;;;;;4805264;29;20122;-67
2022/05/06 12:28:07;;;;;;;4.38;3.05;;;;;;;;;;4805774;29;20039;-65
2022/05/06 12:30:34;;;;;;;6.10;3.85;;;;;;;;;;4805184;29;20035;-68
2022/05/06 12:33:01;;;;;;;6.78;3.83;;;;;;;;;;4805706;29;20027;-69
2022/05/06 12:35:27;;;;;;;6.20;3.90;;;;;;;;;;4804511;29;20106;-68
2022/05/06 12:37:58;;;;;;;7.72;3.70;;;;;;;;;;4804919;29;20101;-60
2022/05/06 12:40:30;;;;;;;6.30;3.95;;;;;;;;;;4805177;29;20035;-67
2022/05/06 12:43:07;;;;;;;9.05;4.97;;;;;;;;;;4805237;29;20121;-68
2022/05/06 12:45:33;;;;;;;8.15;4.95;;;;;;;;;;4804720;29;20030;-62
2022/05/06 12:50:44;;;;;;;7.07;3.00;;;;;;;;;;4805133;29;20522;-58
2022/05/06 12:53:10;;;;;;;6.20;3.63;;;;;;;;;;4805163;29;20111;-58
2022/05/06 12:55:37;;;;;;;6.25;3.30;;;;;;;;;;4804890;29;20479;-68
2022/05/06 12:58:03;;;;;;;9.10;3.72;;;;;;;;;;4804917;29;20526;-64
2022/05/06 13:00:29;;;;;;;5.57;3.75;;;;;;;;;;4804783;29;20062;-63
2022/05/06 13:02:56;;;;;;;6.05;2.80;;;;;;;;;;4804929;29;20410;-69
2022/05/06 13:05:22;;;;;;;5.78;3.33;;;;;;;;;;4805139;29;20502;-70
2022/05/06 13:07:48;;;;;;;8.27;3.65;;;;;;;;;;4804757;29;20035;-69
2022/05/06 13:10:14;;;;;;;7.80;3.35;;;;;;;;;;4804756;29;20031;-63
2022/05/06 13:12:40;;;;;;;7.18;3.17;;;;;;;;;;4804945;29;20041;-68
2022/05/06 13:15:07;;;;;;;5.95;3.38;;;;;;;;;;4804474;29;20056;-58
2022/05/06 13:17:33;;;;;;;6.65;3.30;;;;;;;;;;4804774;29;20051;-66
2022/05/06 13:19:59;;;;;;;4.97;2.80;;;;;;;;;;4804632;29;20433;-63
2022/05/06 13:22:25;;;;;;;10.20;4.90;;;;;;;;;;4803970;29;20511;-69
2022/05/06 13:24:52;;;;;;;6.57;3.95;;;;;;;;;;4804440;29;20083;-69
2022/05/06 13:27:18;;;;;;;9.82;4.22;;;;;;;;;;4804401;29;20034;-57
2022/05/06 13:29:44;;;;;;;7.82;3.55;;;;;;;;;;4804301;29;20045;-63
2022/05/06 13:32:10;;;;;;;9.02;4.93;;;;;;;;;;4804264;29;20033;-62
2022/05/06 13:34:36;;;;;;;8.18;4.28;;;;;;;;;;4804263;29;20159;-60
2022/05/06 13:37:04;;;;;;;6.43;3.15;;;;;;;;;;4803779;29;20022;-60
2022/05/06 13:39:30;;;;;;;6.03;3.33;;;;;;;;;;4804036;29;20412;-61
2022/05/06 13:41:56;;;;;;;6.50;3.65;;;;;;;;;;4804067;29;20023;-67
2022/05/06 13:44:22;;;;;;;5.60;3.33;;;;;;;;;;4804242;29;20038;-66
2022/05/06 13:46:50;;;;;;;6.50;3.42;;;;;;;;;;4804148;29;20035;-59
2022/05/06 13:49:17;;;;;;;8.55;3.42;;;;;;;;;;4804335;29;20043;-62
2022/05/06 13:51:43;;;;;;;4.35;3.10;;;;;;;;;;4804321;29;20072;-58
2022/05/06 13:54:09;;;;;;;7.22;3.67;;;;;;;;;;4804014;29;20031;-67
2022/05/06 13:59:20;;;;;;;5.57;3.45;;;;;;;;;;4804219;29;20076;-66
2022/05/06 14:01:47;;;;;;;6.68;3.50;;;;;;;;;;4803986;29;20027;-62
2022/05/06 14:04:13;;;;;;;8.85;3.08;;;;;;;;;;4804127;29;20130;-60
2022/05/06 14:06:40;;;;;;;11.02;3.45;;;;;;;;;;4804081;29;20041;-61
2022/05/06 14:09:06;;;;;;;9.45;3.65;;;;;;;;;;4803735;29;20491;-61
2022/05/06 14:11:32;;;;;;;6.70;3.45;;;;;;;;;;4803870;29;20038;-66
2022/05/06 14:13:59;;;;;;;5.40;3.35;;;;;;;;;;4803631;29;20034;-59
2022/05/06 14:16:25;;;;;;;9.40;3.55;;;;;;;;;;4803692;29;20524;-61
2022/05/06 14:18:52;;;;;;;5.20;3.35;;;;;;;;;;4803760;29;20047;-63
2022/05/06 14:21:18;;;;;;;9.98;3.60;;;;;;;;;;4803248;29;20119;-67
2022/05/06 14:23:44;;;;;;;7.18;3.30;;;;;;;;;;4803657;29;20113;-59
2022/05/06 14:26:10;;;;;;;5.88;3.15;;;;;;;;;;4803370;29;20107;-59
2022/05/06 14:28:37;;;;;;;6.78;3.53;;;;;;;;;;4803515;29;20058;-60
2022/05/06 14:31:03;;;;;;;6.25;3.60;;;;;;;;;;4803590;29;20027;-60
2022/05/06 14:33:29;;;;;;;7.18;3.50;;;;;;;;;;4803608;29;20134;-62
2022/05/06 14:35:55;;;;;;;8.25;3.78;;;;;;;;;;4803686;29;20023;-59
2022/05/06 14:38:21;;;;;;;6.18;3.03;;;;;;;;;;4803545;29;20059;-59
2022/05/06 14:40:47;;;;;;;7.75;3.45;;;;;;;;;;4803599;29;20570;-61
2022/05/06 14:43:13;;;;;;;11.25;3.20;;;;;;;;;;4803722;29;20147;-66
2022/05/06 14:45:40;;;;;;;5.20;3.05;;;;;;;;;;4803679;29;20027;-65
2022/05/06 14:48:06;;;;;;;7.32;3.22;;;;;;;;;;4803627;29;20079;-62
2022/05/06 14:50:32;;;;;;;6.72;3.22;;;;;;;;;;4803510;29;20472;-66
2022/05/06 14:52:58;;;;;;;8.68;3.20;;;;;;;;;;4803204;29;20484;-59
2022/05/06 14:55:25;;;;;;;8.73;3.50;;;;;;;;;;4803440;29;20027;-58
2022/05/06 14:57:52;;;;;;;9.18;3.55;;;;;;;;;;4803244;29;20035;-60
2022/05/06 15:00:18;;;;;;;10.32;3.72;;;;;;;;;;4806931;29;20400;-59
2022/05/06 15:02:45;;;;;;;9.38;3.45;;;;;;;;;;4806905;29;20027;-59
2022/05/06 15:05:11;;;;;;;6.32;3.15;;;;;;;;;;4806808;29;20403;-59
2022/05/06 15:07:37;;;;;;;8.27;3.25;;;;;;;;;;4806747;29;20039;-58
2022/05/06 15:10:04;;;;;;;6.80;3.63;;;;;;;;;;4806546;29;20031;-59
2022/05/06 15:12:31;;;;;;;10.18;3.67;;;;;;;;;;4806926;29;20114;-59
2022/05/06 15:14:57;;;;;;;8.52;3.03;;;;;;;;;;4806750;29;20038;-59
2022/05/06 15:17:23;;;;;;;7.20;3.45;;;;;;;;;;4806556;29;20119;-62
2022/05/06 15:19:49;;;;;;;5.90;3.40;;;;;;;;;;4806424;29;20392;-59
2022/05/06 15:22:16;;;;;;;10.32;3.95;;;;;;;;;;4806021;29;20039;-59
2022/05/06 15:24:42;;;;;;;7.78;3.70;;;;;;;;;;4806462;29;20023;-60
2022/05/06 15:27:08;;;;;;;6.13;3.38;;;;;;;;;;4802586;29;20066;-64
2022/05/06 15:29:34;;;;;;;8.48;3.22;;;;;;;;;;4806377;29;20027;-64
2022/05/06 15:32:01;;;;;;;8.43;3.30;;;;;;;;;;4806315;29;20064;-58
2022/05/06 15:34:28;;;;;;;10.82;3.90;;;;;;;;;;4806552;29;20027;-64
2022/05/06 15:36:54;;;;;;;7.45;3.30;;;;;;;;;;4806014;29;20030;-59
2022/05/06 15:39:20;;;;;;;6.93;3.55;;;;;;;;;;4805841;29;20070;-59
2022/05/06 15:41:47;;;;;;;10.50;3.40;;;;;;;;;;4805850;29;20030;-59
2022/05/06 15:44:13;;;;;;;7.28;3.25;;;;;;;;;;4806081;29;20092;-63
2022/05/06 15:46:39;;;;;;;8.27;3.78;;;;;;;;;;4806190;29;20110;-58
2022/05/06 15:49:06;;;;;;;8.77;3.78;;;;;;;;;;4806185;29;20034;-59
2022/05/06 15:51:32;;;;;;;14.43;3.92;;;;;;;;;;4794922;29;20370;-65
2022/05/06 15:53:58;;;;;;;8.00;3.38;;;;;;;;;;4794933;29;20027;-63
2022/05/06 15:56:25;;;;;;;5.95;3.40;;;;;;;;;;4797315;29;20042;-61
2022/05/06 15:58:51;;;;;;;9.10;3.33;;;;;;;;;;4795979;29;20048;-59
2022/05/06 16:01:17;;;;;;;8.45;3.50;;;;;;;;;;4796141;29;20037;-59
2022/05/06 16:03:43;;;;;;;6.03;3.25;;;;;;;;;;4791296;29;20074;-58
2022/05/06 16:06:10;;;;;;;9.20;3.00;;;;;;;;;;4784973;29;20506;-58
2022/05/06 16:08:36;;;;;;;7.55;3.58;;;;;;;;;;4787280;30;20039;-59
2022/05/06 16:11:03;;;;;;;7.93;3.53;;;;;;;;;;4786163;29;20071;-62
2022/05/06 16:13:29;;;;;;;7.53;3.55;;;;;;;;;;4787136;30;20107;-62
2022/05/06 16:15:55;;;;;;;6.75;3.00;;;;;;;;;;4786718;29;20139;-62
2022/05/06 16:18:21;;;;;;;6.15;3.35;;;;;;;;;;4786678;30;20076;-58
2022/05/06 16:20:48;;;;;;;6.25;3.22;;;;;;;;;;4786202;30;20020;-58
2022/05/06 16:23:14;;;;;;;5.13;3.35;;;;;;;;;;4786068;30;20032;-59
2022/05/06 16:25:42;;;;;;;8.23;3.35;;;;;;;;;;4786713;30;20392;-59
2022/05/06 16:28:09;;;;;;;11.73;3.33;;;;;;;;;;4787224;30;20034;-59
2022/05/06 16:30:35;;;;;;;6.78;3.10;;;;;;;;;;4787498;30;20085;-59
2022/05/06 16:33:02;;;;;;;6.80;3.33;;;;;;;;;;4787210;30;20035;-59
2022/05/06 16:38:13;;;;;;;7.85;3.72;;;;;;;;;;4787093;30;20073;-62
2022/05/06 16:40:40;;;;;;;17.98;4.97;;;;;;;;;;4787137;30;20476;-58
2022/05/06 16:43:06;;;;;;;33.15;5.35;;;;;;;;;;4784995;30;20471;-58
2022/05/06 16:45:32;;;;;;;24.90;3.92;;;;;;;;;;4784529;30;20050;-60
2022/05/06 16:47:58;;;;;;;18.65;4.00;;;;;;;;;;4779185;30;20035;-59
2022/05/06 16:50:24;;;;;;;11.02;4.40;;;;;;;;;;4769107;30;20404;-61
2022/05/06 16:52:56;;;;;;;12.25;4.10;;;;;;;;;;4788825;29;20051;-60
2022/05/06 16:55:24;;;;;;;13.05;3.55;;;;;;;;;;4752228;30;20429;-58
2022/05/06 16:57:50;;;;;;;12.38;4.03;;;;;;;;;;4768985;30;20493;-62
2022/05/06 17:00:18;;;;;;;7.70;4.00;;;;;;;;;;4769003;30;20094;-58
2022/05/06 17:02:44;;;;;;;10.27;4.32;;;;;;;;;;4769031;30;20042;-58
2022/05/06 17:05:14;;;;;;;11.98;3.72;;;;;;;;;;4768796;30;20032;-58
2022/05/06 17:07:40;;;;;;;10.18;3.90;;;;;;;;;;4768924;30;20042;-60
2022/05/06 17:10:07;;;;;;;8.95;3.58;;;;;;;;;;4769027;30;20397;-59
2022/05/06 17:12:34;;;;;;;6.85;4.07;;;;;;;;;;4768946;30;20039;-59
2022/05/06 17:15:00;;;;;;;11.23;3.60;;;;;;;;;;4768694;30;20080;-62
2022/05/06 17:17:26;;;;;;;9.55;3.40;;;;;;;;;;4768637;30;20044;-58
2022/05/06 17:19:52;;;;;;;7.43;3.70;;;;;;;;;;4768706;30;20035;-61
2022/05/06 17:22:18;;;;;;;7.72;4.00;;;;;;;;;;4768243;30;20511;-61
2022/05/06 17:24:44;;;;;;;8.18;4.05;;;;;;;;;;4768651;30;20412;-61
2022/05/06 17:27:11;;;;;;;8.68;3.95;;;;;;;;;;4768424;30;20036;-61
2022/05/06 17:29:39;;;;;;;8.57;4.00;;;;;;;;;;4768241;30;20074;-58
2022/05/06 17:32:06;;;;;;;8.63;3.83;;;;;;;;;;4767888;30;20071;-58
2022/05/06 17:34:33;;;;;;;8.70;3.80;;;;;;;;;;4768044;30;20079;-58
2022/05/06 17:36:59;;;;;;;8.43;3.83;;;;;;;;;;4768043;30;20127;-58
2022/05/06 17:39:25;;;;;;;6.88;3.67;;;;;;;;;;4767683;30;20055;-59
2022/05/06 17:41:51;;;;;;;7.80;4.10;;;;;;;;;;4768080;30;20484;-59
2022/05/06 17:44:18;;;;;;;10.27;3.85;;;;;;;;;;4767812;30;20556;-58
2022/05/06 17:46:46;;;;;;;9.82;3.90;;;;;;;;;;4767837;30;20043;-62
2022/05/06 17:49:12;;;;;;;7.50;3.90;;;;;;;;;;4768478;30;20032;-59
2022/05/06 17:51:38;;;;;;;6.95;3.90;;;;;;;;;;4768184;30;20118;-61
2022/05/06 17:54:04;;;;;;;7.05;3.97;;;;;;;;;;4767796;30;20032;-59
2022/05/06 17:56:31;;;;;;;7.47;3.85;;;;;;;;;;4767895;30;20093;-60
2022/05/06 17:58:57;;;;;;;8.27;3.95;;;;;;;;;;4767675;30;20040;-57
2022/05/06 18:01:24;;;;;;;8.32;3.92;;;;;;;;;;4767722;30;20132;-58
2022/05/06 18:03:56;;;;;;;8.40;3.92;;;;;;;;;;4768016;30;20031;-57
2022/05/06 18:06:23;;;;;;;8.23;4.22;;;;;;;;;;4768247;30;20044;-57
2022/05/06 18:08:49;;;;;;;8.05;4.28;;;;;;;;;;4768043;30;20067;-59
2022/05/06 18:11:17;;;;;;;8.13;4.30;;;;;;;;;;4768259;30;20040;-59
2022/05/06 18:13:44;;;;;;;10.02;5.45;;;;;;;;;;4768051;30;20043;-60
2022/05/06 18:16:10;;;;;;;7.57;4.18;;;;;;;;;;4767843;30;20485;-62
2022/05/06 18:18:37;;;;;;;7.72;4.18;;;;;;;;;;4767855;30;20059;-59
2022/05/06 18:21:03;;;;;;;10.88;5.25;;;;;;;;;;4767911;30;20095;-58
2022/05/06 18:23:29;;;;;;;14.07;4.90;;;;;;;;;;4767735;30;20485;-58
2022/05/06 18:25:56;;;;;;;10.25;5.05;;;;;;;;;;4767741;30;20034;-61
2022/05/06 18:28:22;;;;;;;10.27;4.82;;;;;;;;;;4767889;30;20039;-58
2022/05/06 18:30:48;;;;;;;11.85;6.40;;;;;;;;;;4767835;30;20501;-59
2022/05/06 18:33:21;;;;;;;13.00;6.00;;;;;;;;;;4768098;30;20054;-58
2022/05/06 18:35:47;;;;;;;;;;;;;;;;;;4771658;30;20055;-58
2022/05/06 18:38:13;;;;;;;11.88;6.05;;;;;;;;;;4770793;30;20054;-59
2022/05/06 18:40:39;;;;;;;12.73;5.65;;;;;;;;;;4770719;30;20028;-58
2022/05/06 18:43:05;;;;;;;10.77;4.78;;;;;;;;;;4771138;30;20049;-58
2022/05/06 18:45:31;;;;;;;7.18;4.65;;;;;;;;;;4771317;30;20059;-58
2022/05/06 18:47:58;;;;;;;10.15;4.63;;;;;;;;;;4770787;30;20043;-61
2022/05/06 18:50:24;;;;;;;10.82;4.55;;;;;;;;;;4771242;30;20434;-58
2022/05/06 18:52:50;;;;;;;10.20;4.82;;;;;;;;;;4771186;30;20115;-57
2022/05/06 18:55:16;;;;;;;8.48;4.30;;;;;;;;;;4771402;30;20417;-62
2022/05/06 18:57:42;;;;;;;8.35;4.40;;;;;;;;;;4771310;30;20035;-58
2022/05/06 19:00:09;;;;;;;7.57;4.40;;;;;;;;;;4770914;30;20032;-57
2022/05/06 19:02:35;;;;;;;9.10;4.47;;;;;;;;;;4771076;30;20093;-57
2022/05/06 19:05:02;;;;;;;9.85;4.90;;;;;;;;;;4770994;30;20484;-61
2022/05/06 19:07:28;;;;;;;9.65;4.97;;;;;;;;;;4771070;30;20073;-57
2022/05/06 19:09:55;;;;;;;7.43;4.43;;;;;;;;;;4771177;30;20118;-61
2022/05/06 19:12:21;;;;;;;11.23;4.50;;;;;;;;;;4771008;30;20093;-57
2022/05/06 19:14:47;;;;;;;9.63;4.72;;;;;;;;;;4770898;30;20118;-62
2022/05/06 19:17:13;;;;;;;7.82;4.60;;;;;;;;;;4770630;30;20553;-61
2022/05/06 19:19:39;;;;;;;7.15;4.50;;;;;;;;;;4771115;30;20036;-61
2022/05/06 19:24:53;;;;;;;9.02;4.55;;;;;;;;;;4770991;30;20105;-59
2022/05/06 19:27:19;;;;;;;9.45;4.45;;;;;;;;;;4770867;30;20489;-61
2022/05/06 19:29:46;;;;;;;8.77;4.40;;;;;;;;;;4770528;30;20031;-58
2022/05/06 19:32:13;;;;;;;7.97;4.30;;;;;;;;;;4770771;30;20036;-61
2022/05/06 19:34:41;;;;;;;9.13;4.18;;;;;;;;;;4770882;30;20114;-61
2022/05/06 19:37:07;;;;;;;8.75;4.40;;;;;;;;;;4754203;30;20454;-58
2022/05/06 19:39:33;;;;;;;7.15;4.32;;;;;;;;;;4770263;30;20091;-58
2022/05/06 19:41:59;;;;;;;9.45;4.53;;;;;;;;;;4770565;30;20477;-61
2022/05/06 19:44:25;;;;;;;7.72;4.22;;;;;;;;;;4770374;30;20044;-61
2022/05/06 19:46:52;;;;;;;9.98;4.38;;;;;;;;;;4770424;30;20028;-60
2022/05/06 19:49:21;;;;;;;8.90;4.28;;;;;;;;;;4770515;30;20036;-59
2022/05/06 19:54:33;;;;;;;12.52;5.18;;;;;;;;;;4770349;30;20038;-57
2022/05/06 19:56:59;;;;;;;8.40;4.10;;;;;;;;;;4769981;30;20176;-58
2022/05/06 19:59:26;;;;;;;8.25;4.25;;;;;;;;;;4770007;30;20489;-57
2022/05/06 20:01:52;;;;;;;8.10;4.43;;;;;;;;;;4770152;30;20442;-58
2022/05/06 20:04:19;;;;;;;8.50;4.70;;;;;;;;;;4770000;30;20028;-58
2022/05/06 20:06:45;;;;;;;10.10;4.53;;;;;;;;;;4770066;30;20031;-58
2022/05/06 20:09:15;;;;;;;9.60;4.70;;;;;;;;;;4769756;30;20079;-60
2022/05/06 20:11:41;;;;;;;10.02;4.18;;;;;;;;;;4769779;30;20036;-61
2022/05/06 20:14:08;;;;;;;10.82;4.50;;;;;;;;;;4769606;30;20039;-62
2022/05/06 20:16:34;;;;;;;9.57;4.88;;;;;;;;;;4769509;30;20035;-63
2022/05/06 20:19:00;;;;;;;9.68;4.35;;;;;;;;;;4769555;30;20047;-57
2022/05/06 20:21:26;;;;;;;10.90;4.72;;;;;;;;;;4769665;30;20499;-62
2022/05/06 20:23:52;;;;;;;8.98;4.40;;;;;;;;;;4769347;30;20122;-62
2022/05/06 20:26:18;;;;;;;9.23;4.82;;;;;;;;;;4769465;30;20031;-59
2022/05/06 20:28:45;;;;;;;8.80;4.53;;;;;;;;;;4769488;30;20028;-63
2022/05/06 20:31:13;;;;;;;7.88;4.60;;;;;;;;;;4769430;30;20031;-61
2022/05/06 20:33:39;;;;;;;9.32;4.53;;;;;;;;;;4769528;30;20628;-58
2022/05/06 20:36:05;;;;;;;9.05;4.90;;;;;;;;;;4769382;30;20071;-58
2022/05/06 20:38:31;;;;;;;10.57;4.70;;;;;;;;;;4768851;30;20063;-57
2022/05/06 20:40:58;;;;;;;12.02;5.28;;;;;;;;;;4769702;30;20204;-60
2022/05/06 20:43:24;;;;;;;10.52;4.78;;;;;;;;;;4769502;30;20040;-62
2022/05/06 20:45:50;;;;;;;9.50;4.47;;;;;;;;;;4769349;30;20114;-62
2022/05/06 20:48:18;;;;;;;13.60;5.05;;;;;;;;;;4769452;30;20137;-62
2022/05/06 20:50:44;;;;;;;9.50;5.03;;;;;;;;;;4769234;30;20077;-58
2022/05/06 20:53:10;;;;;;;9.32;4.88;;;;;;;;;;4769316;30;20065;-61
2022/05/06 20:55:36;;;;;;;7.32;4.55;;;;;;;;;;4768841;30;20024;-58
2022/05/06 21:00:47;;;;;;;8.88;5.00;;;;;;;;;;4769315;30;20070;-58
2022/05/06 21:03:13;;;;;;;11.45;4.75;;;;;;;;;;4769062;30;20031;-58
2022/05/06 21:05:39;;;;;;;10.90;4.43;;;;;;;;;;4769413;30;20114;-57